createdAt,value
2022-10-23T00:02:02.667Z,101759.23
2022-10-23T00:04:54.744Z,101758.33
2022-10-23T00:07:45.109Z,101752.86
2022-10-23T00:10:35.231Z,101746.21
2022-10-23T00:13:26.035Z,101747.27
2022-10-23T00:16:16.929Z,101750.56
2022-10-23T00:19:07.399Z,101752.98
2022-10-23T00:21:57.360Z,101752.04
2022-10-23T00:24:47.146Z,101756.73
2022-10-23T00:27:37.403Z,101758.14
2022-10-23T00:30:27.508Z,101757.25
2022-10-23T00:33:18.385Z,101757.96
2022-10-23T00:36:11.783Z,101758.36
2022-10-23T00:39:02.464Z,101753.83
2022-10-23T00:41:53.015Z,101758.21
2022-10-23T00:45:13.064Z,101761.97
2022-10-23T00:48:05.014Z,101763.78
2022-10-23T00:50:55.740Z,101765.05
2022-10-23T00:54:01.093Z,101764.40
2022-10-23T00:57:04.513Z,101764.81
2022-10-23T00:59:54.855Z,101763.93
2022-10-23T01:02:45.965Z,101766.29
2022-10-23T01:05:42.834Z,101760.81
2022-10-23T01:08:38.804Z,101756.43
2022-10-23T01:11:34.579Z,101757.80
2022-10-23T01:14:32.276Z,101757.88
2022-10-23T01:17:31.396Z,101759.86
2022-10-23T01:20:37.833Z,101760.52
2022-10-23T01:23:44.244Z,101759.73
2022-10-23T01:26:45.525Z,101763.06
2022-10-23T01:29:43.085Z,101764.40
2022-10-23T01:32:40.588Z,101761.04
2022-10-23T01:35:35.644Z,101758.34
2022-10-23T01:38:30.014Z,101757.23
2022-10-23T01:41:29.546Z,101756.38
2022-10-23T01:44:27.845Z,101756.07
2022-10-23T01:50:25.292Z,101750.16
2022-10-23T01:53:24.152Z,101751.05
2022-10-23T01:56:19.175Z,101747.64
2022-10-23T01:59:15.433Z,101746.77
2022-10-23T02:02:07.710Z,101743.11
2022-10-23T02:05:01.582Z,101742.05
2022-10-23T02:07:52.401Z,101742.68
2022-10-23T02:10:51.086Z,101745.20
2022-10-23T02:13:51.155Z,101735.95
2022-10-23T02:16:48.523Z,101735.41
2022-10-23T02:19:44.987Z,101733.84
2022-10-23T02:22:40.207Z,101732.58
2022-10-23T02:25:38.680Z,101730.50
2022-10-23T02:28:36.211Z,101728.31
2022-10-23T02:31:26.660Z,101726.48
2022-10-23T02:34:16.635Z,101726.23
2022-10-23T02:37:07.030Z,101733.83
2022-10-23T02:39:58.135Z,101732.73
2022-10-23T02:42:55.076Z,101729.61
2022-10-23T02:45:54.721Z,101725.19
2022-10-23T02:48:50.210Z,101718.30
2022-10-23T02:51:50.846Z,101719.02
2022-10-23T02:55:01.669Z,101725.66
2022-10-23T02:58:01.412Z,101723.59
2022-10-23T03:00:56.487Z,101728.73
2022-10-23T03:03:52.599Z,101732.23
2022-10-23T03:06:43.409Z,101725.02
2022-10-23T03:09:41.068Z,101719.71
2022-10-23T03:12:30.850Z,101714.34
2022-10-23T03:15:22.422Z,101708.04
2022-10-23T03:18:13.499Z,101710.08
2022-10-23T03:21:07.832Z,101712.59
2022-10-23T03:23:57.854Z,101719.47
2022-10-23T03:26:55.726Z,101724.09
2022-10-23T03:29:52.589Z,101724.59
2022-10-23T03:32:43.328Z,101722.25
2022-10-23T03:35:33.183Z,101723.48
2022-10-23T03:38:25.696Z,101728.00
2022-10-23T03:41:16.043Z,101731.69
2022-10-23T03:44:06.110Z,101740.36
2022-10-23T03:46:56.623Z,101741.09
2022-10-23T03:49:46.426Z,101738.23
2022-10-23T03:52:36.158Z,101738.73
2022-10-23T03:55:27.339Z,101740.50
2022-10-23T03:58:17.412Z,101739.83
2022-10-23T04:01:07.534Z,101739.10
2022-10-23T04:03:58.943Z,101743.13
2022-10-23T04:06:49.227Z,101740.94
2022-10-23T04:09:39.438Z,101741.06
2022-10-23T04:12:29.913Z,101744.79
2022-10-23T04:15:19.589Z,101747.65
2022-10-23T04:18:09.926Z,101751.80
2022-10-23T04:20:59.602Z,101754.55
2022-10-23T04:23:49.828Z,101755.84
2022-10-23T04:26:41.307Z,101750.23
2022-10-23T04:29:34.020Z,101751.25
2022-10-23T04:32:24.024Z,101750.60
2022-10-23T04:35:14.746Z,101748.73
2022-10-23T04:38:04.571Z,101749.98
2022-10-23T04:40:55.191Z,101755.34
2022-10-23T04:43:46.084Z,101756.00
2022-10-23T04:46:38.136Z,101759.27
2022-10-23T04:49:28.730Z,101763.74
2022-10-23T04:52:58.206Z,101756.01
2022-10-23T04:56:09.315Z,101752.95
2022-10-23T04:59:09.643Z,101758.08
2022-10-23T05:02:01.644Z,101761.66
2022-10-23T05:04:52.417Z,101762.97
2022-10-23T05:08:17.886Z,101764.53
2022-10-23T05:11:27.443Z,101759.55
2022-10-23T05:14:21.974Z,101755.06
2022-10-23T05:17:18.219Z,101754.89
2022-10-23T05:20:13.424Z,101754.55
2022-10-23T05:23:07.628Z,101760.02
2022-10-23T05:25:57.996Z,101768.55
2022-10-23T05:28:47.881Z,101766.89
2022-10-23T05:31:41.012Z,101766.66
2022-10-23T05:34:38.364Z,101773.38
2022-10-23T05:37:28.352Z,101775.30
2022-10-23T05:40:28.970Z,101775.57
2022-10-23T05:43:27.485Z,101775.51
2022-10-23T05:46:32.142Z,101775.94
2022-10-23T05:49:51.337Z,101782.38
2022-10-23T05:52:46.751Z,101783.58
2022-10-23T05:56:04.378Z,101783.08
2022-10-23T05:59:08.923Z,101782.21
2022-10-23T06:02:25.032Z,101781.95
2022-10-23T06:05:17.656Z,101781.50
2022-10-23T06:08:08.526Z,101777.48
2022-10-23T06:10:59.267Z,101783.39
2022-10-23T06:13:49.693Z,101783.69
2022-10-23T06:16:42.411Z,101790.13
2022-10-23T06:19:33.226Z,101795.85
2022-10-23T06:22:23.095Z,101798.33
2022-10-23T06:25:16.890Z,101795.88
2022-10-23T06:28:07.106Z,101800.91
2022-10-23T06:30:59.501Z,101800.78
2022-10-23T06:33:49.664Z,101806.09
2022-10-23T06:36:39.915Z,101810.46
2022-10-23T06:40:03.711Z,101819.80
2022-10-23T06:43:23.658Z,101828.09
2022-10-23T06:46:30.090Z,101832.11
2022-10-23T06:49:39.349Z,101837.93
2022-10-23T06:52:46.533Z,101839.23
2022-10-23T06:55:40.134Z,101841.30
2022-10-23T06:58:31.533Z,101841.98
2022-10-23T07:01:26.008Z,101840.14
2022-10-23T07:04:16.947Z,101839.63
2022-10-23T07:07:08.846Z,101841.96
2022-10-23T07:10:07.854Z,101842.27
2022-10-23T07:13:04.101Z,101839.48
2022-10-23T07:16:09.473Z,101844.97
2022-10-23T07:19:02.071Z,101849.59
2022-10-23T07:21:53.606Z,101849.92
2022-10-23T07:25:02.331Z,101845.86
2022-10-23T07:27:59.679Z,101843.20
2022-10-23T07:31:00.641Z,101842.34
2022-10-23T07:34:06.517Z,101852.38
2022-10-23T07:36:57.088Z,101857.79
2022-10-23T07:39:47.213Z,101855.20
2022-10-23T07:42:36.987Z,101860.52
2022-10-23T07:45:27.052Z,101865.24
2022-10-23T07:48:17.520Z,101873.46
2022-10-23T07:51:21.533Z,101873.00
2022-10-23T07:54:15.333Z,101872.66
2022-10-23T07:57:23.825Z,101874.02
2022-10-23T08:00:20.625Z,101874.52
2022-10-23T08:03:16.406Z,101873.15
2022-10-23T08:06:07.149Z,101868.98
2022-10-23T08:08:56.822Z,101860.65
2022-10-23T08:11:47.576Z,101855.77
2022-10-23T08:14:39.400Z,101857.27
2022-10-23T08:17:30.921Z,101862.96
2022-10-23T08:20:41.386Z,101866.98
2022-10-23T08:23:32.205Z,101872.76
2022-10-23T08:26:22.880Z,101872.95
2022-10-23T08:29:12.664Z,101875.39
2022-10-23T08:32:04.625Z,101881.52
2022-10-23T08:35:01.733Z,101884.20
2022-10-23T08:37:53.674Z,101884.29
2022-10-23T08:40:49.891Z,101881.67
2022-10-23T08:44:15.016Z,101883.16
2022-10-23T08:47:11.845Z,101881.95
2022-10-23T08:53:30.452Z,101875.02
2022-10-23T08:56:27.200Z,101878.94
2022-10-23T08:59:26.244Z,101884.45
2022-10-23T09:02:22.726Z,101885.71
2022-10-23T09:05:19.661Z,101880.40
2022-10-23T09:08:25.751Z,101879.63
2022-10-23T09:11:24.329Z,101886.41
2022-10-23T09:14:32.949Z,101885.02
2022-10-23T09:17:28.160Z,101884.63
2022-10-23T09:20:22.004Z,101890.05
2022-10-23T09:23:18.749Z,101894.08
2022-10-23T09:26:16.214Z,101897.52
2022-10-23T09:29:20.824Z,101894.14
2022-10-23T09:32:10.889Z,101889.34
2022-10-23T09:35:00.616Z,101891.57
2022-10-23T09:37:53.232Z,101898.60
2022-10-23T09:40:44.964Z,101899.30
2022-10-23T09:43:35.382Z,101901.94
2022-10-23T09:46:26.822Z,101904.54
2022-10-23T09:49:23.849Z,101908.66
2022-10-23T09:52:29.749Z,101911.35
2022-10-23T09:55:25.581Z,101914.16
2022-10-23T09:58:28.484Z,101921.53
2022-10-23T10:01:28.636Z,101921.30
2022-10-23T10:04:41.746Z,101921.47
2022-10-23T10:07:36.017Z,101917.85
2022-10-23T10:10:28.643Z,101917.52
2022-10-23T10:13:36.690Z,101923.84
2022-10-23T10:16:34.445Z,101926.96
2022-10-23T10:19:37.622Z,101928.70
2022-10-23T10:22:36.582Z,101931.27
2022-10-23T10:25:33.477Z,101935.36
2022-10-23T10:28:42.069Z,101934.27
2022-10-23T10:31:48.262Z,101934.16
2022-10-23T10:34:46.648Z,101929.21
2022-10-23T10:37:53.798Z,101915.49
2022-10-23T10:40:49.075Z,101915.90
2022-10-23T10:43:47.865Z,101910.13
2022-10-23T10:46:44.409Z,101906.73
2022-10-23T10:49:41.536Z,101908.76
2022-10-23T10:53:07.938Z,101904.60
2022-10-23T10:56:01.396Z,101903.34
2022-10-23T10:58:54.756Z,101902.88
2022-10-23T11:01:52.115Z,101898.42
2022-10-23T11:04:51.259Z,101894.15
2022-10-23T11:07:49.700Z,101894.11
2022-10-23T11:10:43.353Z,101893.34
2022-10-23T11:13:37.812Z,101892.67
2022-10-23T11:16:32.049Z,101890.04
2022-10-23T11:19:26.008Z,101889.38
2022-10-23T11:22:26.103Z,101888.97
2022-10-23T11:25:48.451Z,101886.86
2022-10-23T11:28:53.132Z,101884.91
2022-10-23T11:31:55.761Z,101885.58
2022-10-23T11:34:58.885Z,101887.52
2022-10-23T11:38:01.328Z,101879.48
2022-10-23T11:40:54.791Z,101875.36
2022-10-23T11:43:55.300Z,101874.87
2022-10-23T11:46:45.185Z,101873.55
2022-10-23T11:53:40.068Z,101874.39
2022-10-23T11:56:31.336Z,101870.55
2022-10-23T11:59:28.166Z,101865.41
2022-10-23T12:02:37.642Z,101866.27
2022-10-23T12:05:34.919Z,101862.11
2022-10-23T12:08:27.929Z,101858.67
2022-10-23T12:11:40.658Z,101853.53
2022-10-23T12:14:34.401Z,101848.52
2022-10-23T12:17:41.576Z,101846.58
2022-10-23T12:20:37.964Z,101845.48
2022-10-23T12:23:44.383Z,101844.96
2022-10-23T12:27:02.981Z,101835.48
2022-10-23T12:30:03.021Z,101824.08
2022-10-23T12:33:14.920Z,101818.73
2022-10-23T12:36:27.688Z,101815.48
2022-10-23T12:39:31.786Z,101812.10
2022-10-23T12:42:26.316Z,101813.55
2022-10-23T12:45:22.655Z,101812.11
2022-10-23T12:48:22.981Z,101814.06
2022-10-23T12:51:23.891Z,101815.71
2022-10-23T12:54:22.837Z,101808.91
2022-10-23T12:57:23.899Z,101808.54
2022-10-23T13:00:21.385Z,101805.38
2022-10-23T13:03:15.545Z,101801.82
2022-10-23T13:06:06.493Z,101795.95
2022-10-23T13:08:57.674Z,101791.23
2022-10-23T13:11:56.835Z,101790.95
2022-10-23T13:15:01.408Z,101785.73
2022-10-23T13:18:04.792Z,101777.83
2022-10-23T13:23:57.626Z,101777.79
2022-10-23T13:26:47.442Z,101777.75
2022-10-23T13:29:38.123Z,101773.55
2022-10-23T13:32:31.537Z,101771.55
2022-10-23T13:35:25.712Z,101775.00
2022-10-23T13:38:17.491Z,101774.23
2022-10-23T13:41:12.509Z,101772.41
2022-10-23T13:44:02.659Z,101772.36
2022-10-23T13:46:53.357Z,101770.13
2022-10-23T13:49:43.257Z,101770.94
2022-10-23T13:52:33.162Z,101774.03
2022-10-23T13:55:26.725Z,101770.02
2022-10-23T13:58:16.820Z,101772.36
2022-10-23T14:01:08.156Z,101770.12
2022-10-23T14:04:00.318Z,101769.95
2022-10-23T14:06:50.378Z,101770.56
2022-10-23T14:09:40.663Z,101768.06
2022-10-23T14:12:30.729Z,101765.35
2022-10-23T14:15:21.536Z,101766.14
2022-10-23T14:18:11.772Z,101767.02
2022-10-23T14:21:04.801Z,101765.27
2022-10-23T14:23:55.890Z,101766.09
2022-10-23T14:26:46.178Z,101767.10
2022-10-23T14:29:36.436Z,101764.98
2022-10-23T14:32:26.716Z,101763.19
2022-10-23T14:35:18.083Z,101769.10
2022-10-23T14:38:08.785Z,101769.95
2022-10-23T14:40:59.821Z,101770.33
2022-10-23T14:43:50.476Z,101770.79
2022-10-23T14:46:41.195Z,101775.95
2022-10-23T14:49:31.303Z,101778.16
2022-10-23T14:52:21.470Z,101780.74
2022-10-23T14:55:12.220Z,101774.64
2022-10-23T14:58:02.401Z,101776.10
2022-10-23T15:01:02.375Z,101777.11
2022-10-23T15:03:56.001Z,101779.14
2022-10-23T15:06:47.469Z,101779.02
2022-10-23T15:09:39.477Z,101781.70
2022-10-23T15:12:29.633Z,101776.94
2022-10-23T15:15:19.530Z,101772.90
2022-10-23T15:18:09.842Z,101773.70
2022-10-23T15:20:59.756Z,101774.56
2022-10-23T15:23:50.040Z,101768.68
2022-10-23T15:26:41.833Z,101766.67
2022-10-23T15:29:31.495Z,101765.98
2022-10-23T15:32:21.293Z,101760.48
2022-10-23T15:35:11.771Z,101753.70
2022-10-23T15:38:01.636Z,101752.47
2022-10-23T15:40:52.161Z,101750.64
2022-10-23T15:43:42.577Z,101748.65
2022-10-23T15:46:32.601Z,101745.95
2022-10-23T15:49:22.925Z,101751.41
2022-10-23T15:52:13.705Z,101758.55
2022-10-23T15:55:03.517Z,101759.89
2022-10-23T15:57:53.323Z,101757.39
2022-10-23T16:00:44.117Z,101762.74
2022-10-23T16:03:35.035Z,101762.64
2022-10-23T16:06:25.413Z,101758.04
2022-10-23T16:09:16.278Z,101757.95
2022-10-23T16:12:07.414Z,101764.64
2022-10-23T16:14:58.059Z,101766.77
2022-10-23T16:17:49.101Z,101773.84
2022-10-23T16:20:42.308Z,101781.06
2022-10-23T16:23:33.516Z,101785.92
2022-10-23T16:26:23.899Z,101781.83
2022-10-23T16:29:14.511Z,101776.02
2022-10-23T16:32:04.633Z,101773.85
2022-10-23T16:34:54.688Z,101766.52
2022-10-23T16:37:44.890Z,101769.89
2022-10-23T16:40:39.309Z,101775.66
2022-10-23T16:44:02.244Z,101776.88
2022-10-23T16:47:04.860Z,101773.48
2022-10-23T16:49:55.330Z,101773.34
2022-10-23T16:52:45.926Z,101781.39
2022-10-23T16:55:36.753Z,101785.27
2022-10-23T16:58:28.218Z,101787.27
2022-10-23T17:01:21.868Z,101791.50
2022-10-23T17:04:12.239Z,101791.52
2022-10-23T17:07:02.859Z,101799.66
2022-10-23T17:09:53.200Z,101802.44
2022-10-23T17:12:43.933Z,101796.52
2022-10-23T17:15:34.283Z,101803.96
2022-10-23T17:18:24.433Z,101810.06
2022-10-23T17:21:15.716Z,101811.69
2022-10-23T17:24:06.979Z,101809.40
2022-10-23T17:26:57.178Z,101815.31
2022-10-23T17:29:47.493Z,101819.61
2022-10-23T17:32:38.093Z,101822.28
2022-10-23T17:35:28.536Z,101822.09
2022-10-23T17:38:19.292Z,101816.98
2022-10-23T17:41:10.609Z,101815.70
2022-10-23T17:44:01.157Z,101814.25
2022-10-23T17:46:53.992Z,101817.89
2022-10-23T17:49:45.502Z,101808.50
2022-10-23T17:52:36.907Z,101802.35
2022-10-23T17:55:26.918Z,101807.23
2022-10-23T17:58:17.090Z,101815.02
2022-10-23T18:01:09.828Z,101814.42
2022-10-23T18:04:02.909Z,101816.92
2022-10-23T18:06:54.558Z,101825.88
2022-10-23T18:09:44.552Z,101843.38
2022-10-23T18:12:34.425Z,101856.76
2022-10-23T18:15:24.582Z,101853.25
2022-10-23T18:18:15.108Z,101849.42
2022-10-23T18:21:07.705Z,101845.21
2022-10-23T18:23:59.322Z,101837.95
2022-10-23T18:26:50.258Z,101834.70
2022-10-23T18:29:43.433Z,101838.20
2022-10-23T18:32:34.624Z,101836.23
2022-10-23T18:35:25.261Z,101832.67
2022-10-23T18:38:15.804Z,101832.13
2022-10-23T18:41:07.346Z,101829.08
2022-10-23T18:43:58.328Z,101827.41
2022-10-23T18:46:49.768Z,101830.87
2022-10-23T18:49:40.191Z,101831.03
2022-10-23T18:52:30.902Z,101823.85
2022-10-23T18:55:22.151Z,101821.79
2022-10-23T18:58:12.719Z,101819.23
2022-10-23T19:01:03.082Z,101827.61
2022-10-23T19:03:54.222Z,101829.30
2022-10-23T19:06:44.722Z,101819.13
2022-10-23T19:09:36.483Z,101813.12
2022-10-23T19:12:26.606Z,101815.00
2022-10-23T19:15:16.612Z,101816.95
2022-10-23T19:18:08.350Z,101810.32
2022-10-23T19:20:59.509Z,101800.30
2022-10-23T19:23:51.629Z,101798.39
2022-10-23T19:26:42.587Z,101805.78
2022-10-23T19:29:34.018Z,101813.11
2022-10-23T19:32:24.123Z,101810.05
2022-10-23T19:35:16.637Z,101810.21
2022-10-23T19:38:06.449Z,101821.20
2022-10-23T19:40:57.064Z,101828.96
2022-10-23T19:43:47.043Z,101825.88
2022-10-23T19:46:39.462Z,101824.97
2022-10-23T19:49:29.775Z,101820.03
2022-10-23T19:52:22.168Z,101821.24
2022-10-23T19:55:13.514Z,101827.64
2022-10-23T19:58:03.887Z,101838.42
2022-10-23T20:00:54.349Z,101850.64
2022-10-23T20:03:46.253Z,101850.56
2022-10-23T20:06:38.283Z,101836.80
2022-10-23T20:09:28.882Z,101813.16
2022-10-23T20:12:19.080Z,101793.91
2022-10-23T20:15:11.786Z,101795.61
2022-10-23T20:18:02.352Z,101811.18
2022-10-23T20:20:53.022Z,101820.96
2022-10-23T20:23:43.184Z,101822.03
2022-10-23T20:26:33.700Z,101810.71
2022-10-23T20:29:25.004Z,101806.23
2022-10-23T20:32:15.568Z,101833.21
2022-10-23T20:35:07.231Z,101837.73
2022-10-23T20:37:57.134Z,101835.73
2022-10-23T20:40:47.686Z,101826.80
2022-10-23T20:43:38.798Z,101821.10
2022-10-23T20:46:29.112Z,101828.98
2022-10-23T20:49:20.221Z,101829.98
2022-10-23T20:52:10.648Z,101809.63
2022-10-23T20:55:01.288Z,101798.28
2022-10-23T20:57:51.588Z,101792.77
2022-10-23T21:00:41.955Z,101795.06
2022-10-23T21:03:32.766Z,101796.65
2022-10-23T21:06:23.309Z,101790.08
2022-10-23T21:09:13.884Z,101794.20
2022-10-23T21:12:03.910Z,101815.11
2022-10-23T21:14:55.844Z,101825.03
2022-10-23T21:17:48.988Z,101826.75
2022-10-23T21:20:39.093Z,101804.16
2022-10-23T21:23:31.657Z,101785.20
2022-10-23T21:26:23.528Z,101803.38
2022-10-23T21:29:18.472Z,101807.19
2022-10-23T21:32:08.853Z,101787.43
2022-10-23T21:34:58.931Z,101778.36
2022-10-23T21:37:48.696Z,101797.48
2022-10-23T21:40:38.361Z,101799.98
2022-10-23T21:43:28.194Z,101795.52
2022-10-23T21:46:19.517Z,101785.34
2022-10-23T21:49:11.055Z,101791.40
2022-10-23T21:52:01.169Z,101783.26
2022-10-23T21:54:54.521Z,101780.45
2022-10-23T21:57:44.137Z,101781.98
2022-10-23T22:00:34.021Z,101778.59
2022-10-23T22:03:23.806Z,101773.94
2022-10-23T22:06:18.915Z,101771.86
2022-10-23T22:09:10.269Z,101770.94
2022-10-23T22:12:01.088Z,101763.25
2022-10-23T22:14:50.841Z,101756.10
2022-10-23T22:17:40.813Z,101761.98
2022-10-23T22:20:31.109Z,101764.08
2022-10-23T22:23:21.147Z,101759.98
2022-10-23T22:26:19.189Z,101758.95
2022-10-23T22:29:10.867Z,101757.82
2022-10-23T22:32:01.322Z,101762.80
2022-10-23T22:34:53.476Z,101767.92
2022-10-23T22:37:44.995Z,101764.67
2022-10-23T22:40:43.047Z,101758.62
2022-10-23T22:43:37.076Z,101762.88
2022-10-23T22:46:29.661Z,101765.34
2022-10-23T22:49:19.942Z,101755.39
2022-10-23T22:52:10.194Z,101748.73
2022-10-23T22:55:00.781Z,101748.18
2022-10-23T22:57:51.218Z,101746.79
2022-10-23T23:00:43.666Z,101744.60
2022-10-23T23:03:33.999Z,101750.89
2022-10-23T23:06:25.399Z,101753.45
2022-10-23T23:09:17.964Z,101752.80
2022-10-23T23:12:10.099Z,101754.77
2022-10-23T23:15:00.381Z,101755.92
2022-10-23T23:17:50.933Z,101748.52
2022-10-23T23:20:40.506Z,101750.48
2022-10-23T23:23:30.466Z,101746.38
2022-10-23T23:26:20.277Z,101749.40
2022-10-23T23:29:10.701Z,101753.52
2022-10-23T23:32:01.526Z,101760.17
2022-10-23T23:34:51.450Z,101761.67
2022-10-23T23:37:41.379Z,101764.44
2022-10-23T23:40:31.604Z,101766.10
2022-10-23T23:43:21.895Z,101764.23
2022-10-23T23:46:12.599Z,101761.90
2022-10-23T23:49:02.805Z,101764.23
2022-10-23T23:51:52.881Z,101766.63
2022-10-23T23:54:42.757Z,101763.14
2022-10-23T23:57:33.163Z,101758.22
